METAR KSCH 251600Z AUTO 07004KT 5SM -DZ BKN005 OVC011 11/11 A2991 A02